Time;durP1;ratioP1;P1;durP2;ratioP2;P2;SDS_P1;SDS_P2;PMS_P1;PMS_P2;Temp;Humidity;BMP_temperature;BMP_pressure;BME280_temperature;BME280_humidity;BME280_pressure;Samples;Min_cycle;Max_cycle;Signal;HPM_P1;HPM_P2
2022/09/30 00:00:24;;;;;;;0.10;0.10;;;;;;;11.42;66.87;100899.53;5072336;28;20021;-82
2022/09/30 00:02:51;;;;;;;0.10;0.10;;;;;;;11.39;66.87;100890.78;5071492;28;20032;-82
2022/09/30 00:05:17;;;;;;;0.10;0.10;;;;;;;11.45;67.11;100901.25;5071715;28;20217;-82
2022/09/30 00:07:43;;;;;;;0.85;0.77;;;;;;;11.49;67.11;100908.25;5076585;28;20039;-81
2022/09/30 00:10:11;;;;;;;0.10;0.10;;;;;;;11.53;67.16;100904.59;5075011;28;20028;-81
2022/09/30 00:12:37;;;;;;;0.30;0.30;;;;;;;11.56;66.88;100901.88;5081752;28;20078;-83
2022/09/30 00:15:04;;;;;;;0.13;0.13;;;;;;;11.62;66.69;100899.06;5077161;28;20054;-81
2022/09/30 00:17:30;;;;;;;0.10;0.10;;;;;;;11.62;67.16;100890.25;5075554;28;20047;-81
2022/09/30 00:19:59;;;;;;;0.35;0.30;;;;;;;11.69;66.69;100896.28;5075235;28;20111;-81
2022/09/30 00:22:25;;;;;;;0.10;0.10;;;;;;;11.69;66.96;100899.81;5077840;28;20036;-78
2022/09/30 00:24:52;;;;;;;0.10;0.10;;;;;;;11.73;66.79;100905.94;5075237;28;20107;-80
2022/09/30 00:27:19;;;;;;;0.10;0.10;;;;;;;11.76;66.92;100913.81;5075691;28;20374;-82
2022/09/30 00:29:46;;;;;;;0.13;0.13;;;;;;;11.80;67.10;100912.81;5074348;28;20051;-82
2022/09/30 00:32:12;;;;;;;0.10;0.10;;;;;;;11.83;66.76;100904.78;5074378;28;20094;-82
2022/09/30 00:34:38;;;;;;;0.10;0.10;;;;;;;11.88;67.33;100910.84;5075178;28;20392;-83
2022/09/30 00:37:05;;;;;;;0.10;0.10;;;;;;;11.92;67.15;100915.16;5075318;28;20039;-82
2022/09/30 00:39:31;;;;;;;0.10;0.10;;;;;;;11.97;67.25;100909.78;5078883;28;20020;-81
2022/09/30 00:42:01;;;;;;;0.20;0.20;;;;;;;12.02;67.36;100907.88;5071407;28;20107;-82
2022/09/30 00:50:16;;;;;;;0.10;0.10;;;;;;;12.16;66.96;100896.06;5100458;27;20928;-79
2022/09/30 00:52:46;;;;;;;0.10;0.10;;;;;;;12.14;67.12;100901.41;5081673;28;20106;-79
2022/09/30 00:55:39;;;;;;;0.10;0.10;;;;;;;12.20;66.98;100905.66;5085524;28;20032;-79
2022/09/30 00:58:11;;;;;;;0.10;0.10;;;;;;;12.16;67.57;100899.56;5071968;28;20033;-79
2022/09/30 01:00:38;;;;;;;0.20;0.20;;;;;;;12.13;67.02;100899.66;5074425;28;20111;-79
2022/09/30 01:03:05;;;;;;;0.10;0.10;;;;;;;12.11;67.52;100906.78;5079758;28;20101;-79
2022/09/30 01:05:33;;;;;;;0.10;0.10;;;;;;;12.09;66.91;100903.31;5086469;28;20029;-79
2022/09/30 01:08:04;;;;;;;0.10;0.10;;;;;;;12.05;67.23;100899.84;5083537;28;20025;-79
2022/09/30 01:10:30;;;;;;;1.15;0.80;;;;;;;12.01;66.69;100900.81;5090293;28;20024;-79
2022/09/30 01:12:58;;;;;;;0.10;0.10;;;;;;;11.99;66.96;100902.66;5083248;28;20037;-79
2022/09/30 01:15:48;;;;;;;0.10;0.10;;;;;;;11.99;67.32;100907.97;5076029;28;20028;-79
2022/09/30 01:21:54;;;;;;;0.10;0.10;;;;;;;11.95;66.39;100906.25;5100359;27;20390;-79
2022/09/30 01:25:00;;;;;;;0.20;0.20;;;;;;;11.86;66.73;100907.34;5052326;28;20066;-79
2022/09/30 01:28:06;;;;;;;0.30;0.30;;;;;;;11.78;66.41;100912.00;5057744;28;20033;-79
2022/09/30 01:33:55;;;;;;;0.30;0.30;;;;;;;11.55;66.22;100910.75;5055645;28;20740;-79
2022/09/30 01:47:21;;;;;;;0.10;0.10;;;;;;;11.19;66.15;100915.97;5130127;27;20456;-83
2022/09/30 01:52:59;;;;;;;0.10;0.10;;;;;;;11.08;66.34;100910.00;5060783;28;20455;-80
2022/09/30 01:55:39;;;;;;;0.10;0.10;;;;;;;11.04;66.28;100900.38;5047913;28;20537;-79
2022/09/30 01:58:16;;;;;;;0.10;0.10;;;;;;;10.94;66.59;100913.84;5033091;28;20482;-79
2022/09/30 02:00:48;;;;;;;0.10;0.10;;;;;;;10.86;66.50;100912.25;5047813;28;20108;-79
2022/09/30 02:03:21;;;;;;;0.20;0.20;;;;;;;10.86;66.40;100913.09;5034831;28;20017;-80
2022/09/30 02:06:03;;;;;;;0.10;0.10;;;;;;;10.83;66.49;100914.03;5046125;28;20036;-79
2022/09/30 02:08:52;;;;;;;0.40;0.40;;;;;;;10.84;66.14;100905.19;5036382;28;20045;-79
2022/09/30 02:11:24;;;;;;;0.10;0.10;;;;;;;10.74;66.48;100900.09;5040662;28;20332;-79
2022/09/30 02:14:01;;;;;;;0.10;0.10;;;;;;;10.72;66.53;100899.28;5054504;28;20025;-79
2022/09/30 02:16:37;;;;;;;0.10;0.10;;;;;;;10.66;66.62;100887.84;5055377;28;20025;-79
2022/09/30 02:21:57;;;;;;;0.10;0.10;;;;;;;10.63;66.74;100895.88;5070547;28;20390;-79
2022/09/30 02:24:27;;;;;;;0.10;0.10;;;;;;;10.59;66.85;100899.50;5070388;28;20056;-79
2022/09/30 02:26:56;;;;;;;0.17;0.17;;;;;;;10.59;66.86;100899.50;5053170;28;20025;-79
2022/09/30 02:29:27;;;;;;;0.20;0.20;;;;;;;10.57;67.08;100896.00;5069003;28;20020;-79
2022/09/30 02:31:59;;;;;;;0.10;0.10;;;;;;;10.57;67.07;100901.31;5069846;28;20039;-79
2022/09/30 02:34:40;;;;;;;0.10;0.10;;;;;;;10.60;66.77;100901.22;5052586;28;20032;-79
2022/09/30 02:37:14;;;;;;;0.10;0.10;;;;;;;10.56;66.78;100914.59;5057012;28;20051;-79
2022/09/30 02:42:27;;;;;;;0.10;0.10;;;;;;;10.55;67.19;100911.03;5114401;27;20383;-79
2022/09/30 02:45:00;;;;;;;0.20;0.20;;;;;;;10.51;66.99;100910.22;5109980;28;20024;-79
2022/09/30 02:47:40;;;;;;;0.20;0.20;;;;;;;10.50;67.08;100910.25;5111492;28;20069;-79
2022/09/30 02:50:17;;;;;;;0.10;0.10;;;;;;;10.50;67.05;100926.16;5096078;28;20054;-79
2022/09/30 02:56:11;;;;;;;0.10;0.10;;;;;;;10.49;66.96;100913.81;5071360;28;20386;-79
2022/09/30 02:58:39;;;;;;;0.10;0.10;;;;;;;10.39;67.11;100914.88;5069548;28;20041;-79
2022/09/30 03:01:08;;;;;;;0.10;0.10;;;;;;;10.36;66.87;100916.69;5069885;28;20047;-79
2022/09/30 03:03:57;;;;;;;0.10;0.10;;;;;;;10.38;67.03;100919.31;5056209;28;20135;-79
2022/09/30 03:06:24;;;;;;;0.20;0.20;;;;;;;10.32;67.05;100911.44;5064014;28;20112;-79
2022/09/30 03:08:52;;;;;;;14.52;2.25;;;;;;;10.33;67.89;100916.72;5057132;28;20033;-79
2022/09/30 03:11:21;;;;;;;0.10;0.10;;;;;;;10.42;67.71;100925.41;5061201;28;20020;-79
2022/09/30 03:14:15;;;;;;;0.10;0.10;;;;;;;10.49;67.81;100925.28;5068289;28;20544;-79
2022/09/30 03:17:09;;;;;;;0.10;0.10;;;;;;;10.57;67.70;100922.50;5068719;28;20036;-79
2022/09/30 03:19:56;;;;;;;0.10;0.10;;;;;;;10.55;67.91;100923.44;5051142;28;20029;-79
2022/09/30 03:28:23;;;;;;;0.10;0.10;;;;;;;10.49;67.70;100929.69;5101348;27;1259551;-83
2022/09/30 03:31:07;;;;;;;0.17;0.17;;;;;;;10.43;67.90;100921.88;5124640;28;20028;-83
2022/09/30 03:33:49;;;;;;;0.10;0.10;;;;;;;10.36;67.68;100929.91;5112739;27;20024;-82
2022/09/30 03:36:33;;;;;;;0.20;0.20;;;;;;;10.36;68.00;100940.50;5097834;28;20032;-81
2022/09/30 03:39:25;;;;;;;0.10;0.10;;;;;;;10.38;67.68;100939.63;5106095;28;20446;-82
2022/09/30 03:42:01;;;;;;;0.20;0.20;;;;;;;10.26;67.60;100943.34;5105045;28;20111;-83
2022/09/30 03:44:36;;;;;;;0.10;0.10;;;;;;;10.22;67.83;100946.91;5120340;28;20035;-82
2022/09/30 03:47:08;;;;;;;0.10;0.10;;;;;;;10.18;67.75;100954.03;5112946;28;20020;-83
2022/09/30 03:49:41;;;;;;;0.17;0.17;;;;;;;10.18;67.92;100959.34;5110066;28;20047;-82
2022/09/30 03:52:11;;;;;;;0.10;0.10;;;;;;;10.17;68.19;100962.91;5101663;28;20032;-82
2022/09/30 03:54:54;;;;;;;0.10;0.10;;;;;;;10.26;67.91;100960.09;5113301;28;20700;-82
2022/09/30 03:57:20;;;;;;;0.10;0.10;;;;;;;10.18;68.04;100962.88;5114532;28;20023;-82
2022/09/30 03:59:46;;;;;;;0.10;0.10;;;;;;;10.16;68.06;100969.09;5115783;28;20043;-82
2022/09/30 04:02:12;;;;;;;0.10;0.10;;;;;;;10.17;68.04;100966.41;5107975;28;20397;-82
2022/09/30 04:04:40;;;;;;;0.17;0.17;;;;;;;10.20;68.17;100965.50;5104139;28;20021;-82
2022/09/30 04:07:07;;;;;;;0.10;0.10;;;;;;;10.21;68.03;100967.25;5101883;28;20028;-82
2022/09/30 04:09:34;;;;;;;0.20;0.20;;;;;;;10.23;68.36;100968.09;5115380;28;20056;-83
2022/09/30 04:12:00;;;;;;;0.10;0.10;;;;;;;10.23;68.34;100969.84;5115955;28;20028;-83
2022/09/30 04:14:26;;;;;;;0.10;0.10;;;;;;;10.22;68.32;100971.66;5115202;28;20030;-83
2022/09/30 04:16:52;;;;;;;0.10;0.10;;;;;;;10.19;68.19;100974.31;5115255;28;20032;-83
2022/09/30 04:19:18;;;;;;;0.10;0.10;;;;;;;10.18;68.18;100972.56;5106960;28;20035;-82
2022/09/30 04:21:44;;;;;;;0.10;0.10;;;;;;;10.17;68.35;100966.41;5113292;28;20039;-83
2022/09/30 04:24:10;;;;;;;0.10;0.10;;;;;;;10.19;68.29;100974.31;5116198;28;20055;-82
2022/09/30 04:26:37;;;;;;;0.10;0.10;;;;;;;10.20;68.43;100968.13;5113549;28;20478;-82
2022/09/30 04:29:03;;;;;;;0.13;0.13;;;;;;;10.23;68.41;100976.03;5116210;28;20107;-83
2022/09/30 04:31:29;;;;;;;0.10;0.10;;;;;;;10.26;68.62;100988.34;5126017;27;20024;-82
2022/09/30 04:33:56;;;;;;;0.13;0.13;;;;;;;10.29;68.52;100983.88;5114383;28;20162;-83
2022/09/30 04:36:23;;;;;;;0.10;0.10;;;;;;;10.30;68.42;100982.09;5109960;28;20034;-82
2022/09/30 04:38:49;;;;;;;0.10;0.10;;;;;;;10.28;68.65;100984.78;5105891;28;20258;-83
2022/09/30 04:41:16;;;;;;;0.10;0.10;;;;;;;10.27;68.56;100998.91;5103081;28;20127;-82
2022/09/30 04:43:45;;;;;;;0.10;0.10;;;;;;;10.27;68.53;100993.63;5103364;28;20032;-83
2022/09/30 04:46:12;;;;;;;0.10;0.10;;;;;;;10.24;68.20;100998.09;5100189;28;20024;-83
2022/09/30 04:48:38;;;;;;;0.20;0.20;;;;;;;10.22;68.38;100991.94;5096885;28;20028;-82
2022/09/30 04:51:05;;;;;;;0.22;0.22;;;;;;;10.21;68.21;100993.72;5098806;28;20106;-82
2022/09/30 04:53:31;;;;;;;0.10;0.10;;;;;;;10.16;68.22;101000.88;5095088;28;20024;-80
2022/09/30 04:56:00;;;;;;;0.10;0.10;;;;;;;10.14;68.29;100998.25;5094876;28;20020;-80
2022/09/30 04:58:27;;;;;;;0.10;0.10;;;;;;;10.11;68.31;100993.00;5096508;28;20027;-80
2022/09/30 05:01:05;;;;;;;0.10;0.10;;;;;;;10.15;68.33;100996.47;5083058;28;20028;-80
2022/09/30 05:03:33;;;;;;;1.60;0.45;;;;;;;10.07;68.40;100998.34;5089866;28;20024;-80
2022/09/30 05:05:59;;;;;;;0.10;0.10;;;;;;;10.05;68.33;100998.38;5093132;28;20042;-80
2022/09/30 05:08:28;;;;;;;0.10;0.10;;;;;;;10.03;68.10;101001.06;5094698;28;20028;-80
2022/09/30 05:10:56;;;;;;;0.10;0.10;;;;;;;10.04;68.26;101001.91;5093707;28;20600;-81
2022/09/30 05:13:25;;;;;;;0.30;0.30;;;;;;;10.04;68.56;101012.50;5095408;28;20061;-80
2022/09/30 05:15:51;;;;;;;0.10;0.10;;;;;;;10.04;68.36;101012.50;5092764;28;20122;-78
2022/09/30 05:18:20;;;;;;;0.10;0.10;;;;;;;10.07;68.45;101012.47;5091339;28;20081;-79
2022/09/30 05:20:50;;;;;;;0.10;0.10;;;;;;;10.11;68.45;101019.47;5096081;28;20073;-80
2022/09/30 05:23:18;;;;;;;0.10;0.10;;;;;;;10.09;68.49;101020.38;5094976;28;20020;-79
2022/09/30 05:25:45;;;;;;;0.10;0.10;;;;;;;10.09;68.49;101021.25;5100293;28;20510;-78
2022/09/30 05:28:11;;;;;;;0.98;0.98;;;;;;;10.10;68.58;101011.56;5090611;28;20028;-79
2022/09/30 05:30:40;;;;;;;0.10;0.10;;;;;;;10.09;68.47;101015.09;5086612;28;20023;-80
2022/09/30 05:33:07;;;;;;;0.10;0.10;;;;;;;10.09;68.29;101017.75;5095125;28;20381;-80
2022/09/30 05:35:33;;;;;;;0.10;0.10;;;;;;;10.08;68.67;101015.97;5087419;28;20040;-79
2022/09/30 05:38:02;;;;;;;0.10;0.10;;;;;;;10.10;68.51;101016.84;5092272;28;20123;-79
2022/09/30 05:40:28;;;;;;;0.10;0.10;;;;;;;10.10;68.65;101022.16;5090215;28;20032;-80
2022/09/30 05:42:56;;;;;;;0.10;0.10;;;;;;;10.11;68.63;101015.94;5092605;28;20043;-78
2022/09/30 05:45:23;;;;;;;0.20;0.20;;;;;;;10.10;68.60;101027.44;5085625;28;20107;-78
2022/09/30 05:47:52;;;;;;;0.10;0.10;;;;;;;10.13;68.44;101022.06;5093362;28;20065;-79
2022/09/30 05:50:19;;;;;;;0.17;0.17;;;;;;;10.11;68.57;101018.59;5093736;28;20020;-79
2022/09/30 05:52:45;;;;;;;0.10;0.10;;;;;;;10.10;68.53;101022.16;5086840;28;20047;-84
2022/09/30 05:55:12;;;;;;;0.10;0.10;;;;;;;10.11;68.55;101029.19;5092465;28;20049;-83
2022/09/30 05:57:38;;;;;;;0.20;0.20;;;;;;;10.14;68.77;101026.47;5099903;28;20028;-84
2022/09/30 06:00:05;;;;;;;0.10;0.10;;;;;;;10.15;68.61;101025.59;5087662;28;20028;-83
2022/09/30 06:02:32;;;;;;;0.10;0.10;;;;;;;10.14;68.72;101030.03;5095302;28;20057;-84
2022/09/30 06:04:58;;;;;;;0.10;0.10;;;;;;;10.16;68.69;101027.34;5107860;28;20027;-83
2022/09/30 06:07:24;;;;;;;0.20;0.20;;;;;;;10.17;68.83;101029.09;5103585;28;20044;-82
2022/09/30 06:09:50;;;;;;;0.20;0.20;;;;;;;10.18;68.73;101026.41;5098784;28;20434;-81
2022/09/30 06:12:16;;;;;;;0.10;0.10;;;;;;;10.21;68.66;101025.50;5091010;28;20414;-82
2022/09/30 06:14:42;;;;;;;0.63;0.63;;;;;;;10.23;68.74;101033.41;5096071;28;20032;-84
2022/09/30 06:17:08;;;;;;;0.28;0.28;;;;;;;10.29;68.52;101033.31;5090585;28;20044;-83
2022/09/30 06:19:35;;;;;;;0.10;0.10;;;;;;;10.31;68.49;101039.47;5085005;28;20040;-81
2022/09/30 06:22:01;;;;;;;0.10;0.10;;;;;;;10.33;68.51;101035.91;5092956;28;20054;-81
2022/09/30 06:24:27;;;;;;;0.20;0.20;;;;;;;10.36;68.65;101037.66;5085313;28;20545;-82
2022/09/30 06:26:53;;;;;;;0.10;0.10;;;;;;;10.39;68.35;101042.88;5080069;28;20111;-83
2022/09/30 06:29:19;;;;;;;0.20;0.20;;;;;;;10.39;68.96;101044.66;5085247;28;20031;-83
2022/09/30 06:31:45;;;;;;;0.15;0.15;;;;;;;10.44;69.01;101048.13;5078833;28;20039;-81
2022/09/30 06:34:12;;;;;;;0.10;0.10;;;;;;;10.49;68.90;101048.91;5088413;28;20020;-82
2022/09/30 06:36:38;;;;;;;0.10;0.10;;;;;;;10.52;68.76;101047.09;5085919;28;20020;-81
2022/09/30 06:39:04;;;;;;;0.20;0.20;;;;;;;10.58;69.03;101061.13;5071353;28;20024;-82
2022/09/30 06:41:31;;;;;;;0.28;0.28;;;;;;;10.62;68.93;101058.41;5072152;28;20061;-81
2022/09/30 06:43:57;;;;;;;0.10;0.10;;;;;;;10.67;69.12;101061.84;5081582;28;20485;-83
2022/09/30 06:46:24;;;;;;;0.20;0.20;;;;;;;10.75;69.09;101052.91;5088093;28;20057;-82
2022/09/30 06:48:55;;;;;;;0.10;0.10;;;;;;;10.82;69.39;101051.91;5081593;28;20032;-82
2022/09/30 06:51:25;;;;;;;0.10;0.10;;;;;;;10.87;69.23;101062.44;5071021;28;20036;-82
2022/09/30 06:53:52;;;;;;;0.10;0.10;;;;;;;10.93;69.31;101057.00;5082605;28;20020;-81
2022/09/30 06:56:19;;;;;;;0.20;0.20;;;;;;;10.98;69.72;101061.31;5080532;28;20070;-81
2022/09/30 06:58:45;;;;;;;0.68;0.68;;;;;;;11.06;69.79;101053.22;5085865;28;20067;-81
2022/09/30 07:01:14;;;;;;;0.10;0.10;;;;;;;11.14;69.43;101055.72;5078343;28;20028;-81
2022/09/30 07:03:41;;;;;;;0.20;0.20;;;;;;;11.22;69.57;101048.50;5090518;28;20035;-82
2022/09/30 07:06:08;;;;;;;0.20;0.20;;;;;;;11.30;69.18;101051.91;5072072;28;20039;-82
2022/09/30 07:08:37;;;;;;;0.10;0.10;;;;;;;11.38;69.76;101045.56;5071176;28;20043;-84
2022/09/30 07:11:11;;;;;;;0.10;0.10;;;;;;;11.45;69.32;101049.81;5074971;28;20020;-87
2022/09/30 07:13:38;;;;;;;0.20;0.20;;;;;;;11.51;69.62;101055.00;5093152;28;20046;-84
2022/09/30 07:16:05;;;;;;;0.10;0.10;;;;;;;11.65;69.65;101058.25;5089644;28;20390;-82
2022/09/30 07:18:31;;;;;;;0.20;0.20;;;;;;;11.78;69.77;101053.53;5088256;28;20027;-81
2022/09/30 07:20:57;;;;;;;0.17;0.17;;;;;;;11.90;69.96;101047.09;5102768;28;20125;-83
2022/09/30 07:23:25;;;;;;;0.20;0.20;;;;;;;12.03;69.37;101052.19;5101487;28;20496;-82
2022/09/30 07:25:55;;;;;;;0.10;0.10;;;;;;;12.14;69.75;101040.38;5089851;28;20020;-83
2022/09/30 07:28:26;;;;;;;0.20;0.20;;;;;;;12.24;69.82;101045.50;5089276;28;20382;-82
2022/09/30 07:30:56;;;;;;;1.60;1.52;;;;;;;12.36;69.69;101044.31;5089351;28;20039;-81
2022/09/30 07:33:24;;;;;;;0.10;0.10;;;;;;;12.47;70.53;101044.91;5087844;28;20181;-81
2022/09/30 07:35:52;;;;;;;0.32;0.32;;;;;;;12.61;70.67;101033.94;5091594;28;20120;-81
2022/09/30 07:38:20;;;;;;;0.20;0.20;;;;;;;12.74;70.98;101039.84;5094330;28;20034;-83
2022/09/30 07:43:44;;;;;;;0.40;0.28;;;;;;;12.93;70.91;101027.81;5098174;27;20767;-83
2022/09/30 07:46:19;;;;;;;0.43;0.43;;;;;;;12.99;70.81;101028.56;5100853;28;20068;-82
2022/09/30 07:48:49;;;;;;;0.20;0.20;;;;;;;13.04;70.71;101030.16;5100731;28;20046;-81
2022/09/30 07:54:00;;;;;;;0.22;0.22;;;;;;;13.21;70.58;101029.69;5062220;28;20376;-80
2022/09/30 07:56:28;;;;;;;0.32;0.32;;;;;;;13.28;70.19;101017.09;5037953;28;20113;-82
2022/09/30 07:58:58;;;;;;;0.10;0.10;;;;;;;13.34;70.79;101019.56;5033407;28;20029;-81
2022/09/30 08:01:25;;;;;;;0.10;0.10;;;;;;;13.46;70.58;101020.16;5035115;28;20049;-81
2022/09/30 08:03:56;;;;;;;0.35;0.35;;;;;;;13.53;70.45;101019.97;5041172;28;21372;-81
2022/09/30 08:06:23;;;;;;;0.10;0.10;;;;;;;13.64;70.70;101019.63;5035202;28;20033;-81
2022/09/30 08:08:52;;;;;;;0.35;0.35;;;;;;;13.73;70.68;101021.13;5031956;28;20489;-81
2022/09/30 08:11:18;;;;;;;0.28;0.28;;;;;;;13.81;69.92;101024.44;5030235;28;20104;-81
2022/09/30 08:13:48;;;;;;;0.75;0.75;;;;;;;13.92;70.07;101026.78;5034714;28;20116;-82
2022/09/30 08:16:14;;;;;;;3.35;1.08;;;;;;;14.03;70.31;101031.75;5027108;28;20033;-81
2022/09/30 08:18:40;;;;;;;0.17;0.17;;;;;;;14.14;70.18;101034.94;5030103;28;20030;-81
2022/09/30 08:21:06;;;;;;;0.20;0.20;;;;;;;14.22;70.05;101030.25;5022512;28;20030;-82
2022/09/30 08:23:34;;;;;;;0.55;0.55;;;;;;;14.34;69.74;101033.44;5024987;28;20078;-81
2022/09/30 08:26:05;;;;;;;0.10;0.10;;;;;;;14.48;69.78;101043.66;5046831;28;20068;-81
2022/09/30 08:28:32;;;;;;;0.20;0.20;;;;;;;14.54;69.81;101041.66;5044245;28;20489;-80
2022/09/30 08:31:17;;;;;;;1.77;0.73;;;;;;;14.75;69.36;101031.22;5040739;28;20033;-81
2022/09/30 08:33:43;;;;;;;0.55;0.55;;;;;;;14.80;69.31;101026.59;5039271;28;20072;-81
2022/09/30 08:36:13;;;;;;;0.15;0.15;;;;;;;14.91;68.81;101017.34;5028530;28;20207;-81
2022/09/30 08:38:39;;;;;;;0.10;0.10;;;;;;;15.01;68.58;101021.44;5029574;28;20473;-81
2022/09/30 08:41:38;;;;;;;0.10;0.10;;;;;;;15.13;67.92;101021.00;5019705;28;20037;-82
2022/09/30 08:49:49;;;;;;;0.20;0.20;;;;;;;15.48;67.14;101039.31;5152077;27;20400;-81
2022/09/30 08:52:18;;;;;;;;;;;;;;;15.63;65.60;101030.72;5153116;27;20031;-82
2022/09/30 08:54:49;;;;;;;0.22;0.22;;;;;;;15.66;66.52;101032.38;5153450;27;19907;-80
2022/09/30 08:57:18;;;;;;;0.50;0.50;;;;;;;15.73;66.46;101028.56;5138663;27;20075;-82
2022/09/30 08:59:51;;;;;;;0.20;0.20;;;;;;;15.79;65.63;101028.31;5134539;27;20042;-81
2022/09/30 09:02:31;;;;;;;0.25;0.25;;;;;;;15.96;65.73;101026.81;5143858;27;20026;-83
2022/09/30 09:05:01;;;;;;;0.20;0.20;;;;;;;15.98;65.21;101030.31;5132519;27;20034;-83
2022/09/30 09:18:36;;;;;;;0.03;0.03;;;;;;;16.40;63.86;101034.84;5117944;27;20131;-81
2022/09/30 09:21:20;;;;;;;0.30;0.30;;;;;;;16.45;62.63;101038.19;5121251;27;20090;-81
2022/09/30 09:23:47;;;;;;;0.10;0.10;;;;;;;16.44;62.18;101031.09;5112845;28;20376;-82
2022/09/30 09:26:14;;;;;;;0.28;0.28;;;;;;;16.52;61.48;101035.28;5112370;28;20028;-82
2022/09/30 09:29:20;;;;;;;0.15;0.15;;;;;;;16.77;62.42;101038.66;5111685;28;20024;-82
2022/09/30 09:31:47;;;;;;;0.30;0.30;;;;;;;16.78;61.74;101040.38;5115080;28;20108;-81
2022/09/30 09:34:14;;;;;;;0.03;0.03;;;;;;;16.85;61.82;101034.75;5105841;28;20039;-81
2022/09/30 09:37:00;;;;;;;0.30;0.30;;;;;;;17.01;61.77;101030.53;5092280;27;20436;-82
2022/09/30 09:42:29;;;;;;;0.10;0.10;;;;;;;17.26;61.03;101024.09;5084733;28;20392;-82
2022/09/30 09:47:32;;;;;;;0.15;0.15;;;;;;;17.28;61.06;101024.88;5061719;27;1919680;-82
2022/09/30 09:50:03;;;;;;;0.10;0.10;;;;;;;17.41;60.50;101022.53;5087478;28;20032;-82
2022/09/30 09:52:56;;;;;;;0.10;0.10;;;;;;;17.54;59.07;101029.03;5093918;28;20028;-83
2022/09/30 09:55:22;;;;;;;0.43;0.43;;;;;;;17.53;59.44;101026.41;5078996;28;20056;-83
2022/09/30 09:58:13;;;;;;;0.10;0.10;;;;;;;17.68;57.64;101022.16;5085522;28;20036;-83
2022/09/30 10:03:27;;;;;;;0.10;0.10;;;;;;;17.76;56.92;101028.91;5108786;27;20910;-82
2022/09/30 10:06:11;;;;;;;0.10;0.10;;;;;;;17.91;57.06;101021.06;5103800;28;20085;-83
2022/09/30 10:08:52;;;;;;;0.17;0.17;;;;;;;17.93;57.72;101021.84;5086477;28;20024;-81
2022/09/30 10:11:24;;;;;;;0.10;0.10;;;;;;;18.04;57.76;101022.22;5091083;28;20075;-83
2022/09/30 10:13:53;;;;;;;;;;;;;;;18.29;58.64;101023.72;5093788;28;20032;-81
2022/09/30 10:16:31;;;;;;;0.10;0.10;;;;;;;18.23;55.87;101026.69;5088491;28;19909;-83
2022/09/30 10:18:58;;;;;;;0.10;0.10;;;;;;;18.20;56.38;101029.53;5092378;28;20024;-83
2022/09/30 10:21:27;;;;;;;0.10;0.10;;;;;;;18.29;55.63;101031.75;5092780;28;20028;-81
2022/09/30 10:23:56;;;;;;;0.10;0.10;;;;;;;18.27;56.37;101022.94;5092419;28;20028;-82
2022/09/30 10:26:25;;;;;;;0.10;0.10;;;;;;;18.35;54.71;101015.38;5103195;28;20526;-81
2022/09/30 10:31:43;;;;;;;0.10;0.10;;;;;;;18.55;53.71;101006.31;5110332;27;1232851;-83
2022/09/30 10:36:46;;;;;;;0.52;0.52;;;;;;;18.51;51.56;101019.97;5106913;27;20126;-80
2022/09/30 10:42:20;;;;;;;0.30;0.30;;;;;;;18.66;52.06;101018.31;5101053;27;20374;-82
2022/09/30 10:44:51;;;;;;;0.10;0.10;;;;;;;18.61;52.40;101015.88;5090076;28;20067;-82
2022/09/30 10:47:25;;;;;;;0.45;0.45;;;;;;;18.65;53.09;101016.59;5091008;28;20499;-81
2022/09/30 10:49:55;;;;;;;0.10;0.10;;;;;;;18.76;52.35;101020.44;5089999;28;20020;-81
2022/09/30 10:52:27;;;;;;;0.10;0.10;;;;;;;18.79;53.35;101021.22;5092585;28;20052;-81
2022/09/30 10:54:55;;;;;;;0.10;0.10;;;;;;;18.75;52.19;101013.34;5088314;28;20020;-81
2022/09/30 11:00:06;;;;;;;0.10;0.10;;;;;;;18.88;52.46;101018.94;5085846;27;20414;-82
2022/09/30 11:08:18;;;;;;;3.00;0.47;;;;;;;18.86;52.23;101009.25;5110219;27;20386;-80
2022/09/30 11:10:56;;;;;;;0.10;0.10;;;;;;;18.87;51.43;101000.25;5108182;28;20040;-79
2022/09/30 11:13:39;;;;;;;0.10;0.10;;;;;;;18.85;50.62;100999.44;5098966;28;20024;-80
2022/09/30 11:18:52;;;;;;;0.10;0.10;;;;;;;18.85;50.84;100996.75;5077879;28;20784;-80
2022/09/30 11:21:27;;;;;;;0.10;0.10;;;;;;;18.88;52.57;101001.97;5045639;28;20034;-79
2022/09/30 11:24:01;;;;;;;0.10;0.10;;;;;;;18.91;51.10;101007.22;5036895;28;20506;-79
2022/09/30 11:26:39;;;;;;;0.00;0.00;;;;;;;19.02;49.71;101003.97;5034637;28;20041;-80
2022/09/30 11:29:34;;;;;;;0.10;0.10;;;;;;;19.12;50.07;100994.47;5032497;28;20033;-79
2022/09/30 11:32:28;;;;;;;0.10;0.10;;;;;;;19.05;50.36;100987.69;5046911;28;20037;-80
2022/09/30 11:35:08;;;;;;;0.10;0.10;;;;;;;19.14;50.04;100983.63;5036248;28;20037;-80
2022/09/30 11:40:36;;;;;;;0.08;0.08;;;;;;;19.61;49.85;100972.09;5130227;27;20927;-81
2022/09/30 11:43:14;;;;;;;0.10;0.10;;;;;;;19.75;49.22;100978.53;5090074;28;20036;-81
2022/09/30 11:46:20;;;;;;;0.10;0.10;;;;;;;20.10;48.46;100967.59;5088975;28;20038;-82
2022/09/30 11:49:02;;;;;;;0.03;0.03;;;;;;;20.23;48.00;100967.75;5088657;28;20482;-80
2022/09/30 11:54:36;;;;;;;0.10;0.10;;;;;;;20.32;47.01;100961.81;5083634;27;20410;-79
2022/09/30 11:57:27;;;;;;;0.28;0.28;;;;;;;20.10;47.93;100962.22;5060252;28;20045;-80
2022/09/30 12:00:06;;;;;;;0.50;0.50;;;;;;;19.84;49.16;100959.22;5068038;28;20041;-79
2022/09/30 12:02:51;;;;;;;0.10;0.10;;;;;;;19.69;49.00;100961.78;5064587;28;20025;-80
2022/09/30 12:08:08;;;;;;;0.65;0.65;;;;;;;19.58;51.06;100955.25;5065543;28;20402;-79
2022/09/30 12:10:43;;;;;;;0.17;0.17;;;;;;;19.73;50.52;100957.97;5063618;28;20040;-81
2022/09/30 12:13:17;;;;;;;0.15;0.15;;;;;;;19.91;49.32;100954.34;5059983;28;20025;-82
2022/09/30 12:15:50;;;;;;;0.10;0.10;;;;;;;20.08;49.71;100956.06;5051469;28;20017;-81
2022/09/30 12:18:24;;;;;;;0.30;0.30;;;;;;;20.13;48.22;100956.66;5050553;28;20097;-81
2022/09/30 12:20:58;;;;;;;0.52;0.38;;;;;;;20.15;47.91;100941.28;5046499;28;20037;-81
2022/09/30 12:23:31;;;;;;;0.17;0.17;;;;;;;20.22;48.50;100941.81;5059633;28;20044;-82
2022/09/30 12:26:01;;;;;;;0.10;0.10;;;;;;;20.34;48.17;100944.63;5055604;28;20078;-79
2022/09/30 12:31:50;;;;;;;0.10;0.10;;;;;;;20.26;49.32;100944.25;5063679;27;20403;-81
2022/09/30 12:34:46;;;;;;;0.10;0.10;;;;;;;20.13;49.14;100949.44;5056855;28;20028;-81
2022/09/30 12:37:40;;;;;;;0.10;0.10;;;;;;;20.02;49.02;100943.84;5057344;28;20127;-81
2022/09/30 12:43:19;;;;;;;0.13;0.13;;;;;;;20.02;49.73;100938.47;5068161;28;20407;-80
2022/09/30 12:48:56;;;;;;;0.60;0.60;;;;;;;19.69;49.30;100945.66;5111349;27;20397;-82
2022/09/30 12:54:12;;;;;;;0.17;0.17;;;;;;;19.70;49.70;100925.91;5102319;27;20400;-81
2022/09/30 12:56:42;;;;;;;0.20;0.20;;;;;;;19.81;49.68;100927.97;5090122;28;20032;-80
2022/09/30 12:59:09;;;;;;;0.15;0.15;;;;;;;19.88;49.11;100917.75;5090095;28;20035;-80
2022/09/30 13:01:38;;;;;;;0.10;0.10;;;;;;;19.98;49.75;100912.72;5088705;28;20424;-80
2022/09/30 13:12:16;;;;;;;0.10;0.10;;;;;;;20.46;48.01;100889.22;5083966;27;1178046;-79
2022/09/30 13:14:42;;;;;;;0.10;0.10;;;;;;;20.41;47.84;100880.56;5083961;28;20024;-78
2022/09/30 13:19:50;;;;;;;0.10;0.10;;;;;;;20.64;47.86;100879.13;5065503;27;20442;-81
2022/09/30 13:40:54;;;;;;;0.20;0.20;;;;;;;20.45;45.96;100894.66;5102079;27;20413;-80
2022/09/30 13:46:03;;;;;;;0.00;0.00;;;;;;;20.39;46.26;100884.28;5122235;27;20628;-79
2022/09/30 13:48:35;;;;;;;0.52;0.52;;;;;;;20.63;45.25;100877.38;5103575;28;20293;-79
2022/09/30 13:51:07;;;;;;;0.10;0.10;;;;;;;20.74;44.28;100873.22;5103853;28;20020;-79
2022/09/30 13:53:38;;;;;;;;;;;;;;;20.85;43.58;100879.66;5100784;28;20062;-79
2022/09/30 13:56:14;;;;;;;0.10;0.10;;;;;;;20.82;43.53;100881.66;5099371;28;19911;-79
2022/09/30 14:10:30;;;;;;;0.17;0.17;;;;;;;20.89;40.40;100871.41;5086879;27;20387;-79
2022/09/30 14:13:26;;;;;;;0.52;0.52;;;;;;;20.96;41.10;100867.31;5078626;28;20045;-79
2022/09/30 14:19:09;;;;;;;0.10;0.10;;;;;;;21.10;40.68;100856.53;5109753;27;1203094;-80
2022/09/30 14:24:22;;;;;;;0.05;0.05;;;;;;;21.12;40.15;100833.09;5084989;27;20402;-81
2022/09/30 14:32:17;;;;;;;0.10;0.10;;;;;;;21.16;40.35;100836.44;5099188;27;20548;-80
2022/09/30 14:34:46;;;;;;;0.10;0.10;;;;;;;21.00;40.05;100833.88;5086872;28;20027;-81